Solrod Strand, Denmark
Current Conditions -  °F | °C
As of 10:20 PM on Thursday 23 Oct 2014 (Local Time) from EKRK Reporting Station
Broken Clouds Broken Clouds  
Wind Chill: 50°   Ceiling: 1100
Heat Index: 50°   Visibility: 6mi
Dew Point: 50°   Wind: 13mph
Humidity: 100%   Direction: 150°SSE
Pressure: 30.18"   Gusts: NA
Location:  55.53°N, 12.22°E
Report Text: EKRK 232020Z AUTO 15011KT 9999NDV FEW006/// BKN011///BKN025/// 10/10 Q1022
Loading
Personal Weather Stations






























Interactive Weather Map
Tropical Storm Tracking
New forecast layout! Learn more

10-Day Weather Forecast

Advertisements
Track Severe Weather on mobile